Decoded Metar for CYPH (INUKJUAK in QC, CANADA) (IATA:YPH) | Meteo·Mobile Aviation Weather
aviador You're here:

CYPH Decoded Metar

INUKJUAK in QC, CANADA
Report Time2019-10-21 00:00:00
UTC Time2019-10-21 00:51:33
Flight Rules mvfr MVFR
Wind170° at 18 Gusting to 25 kt
W.Decomp.*RWY 25: 8.7 kt HW 15.7 kt LCW
Visibility9999 m
Phenomena:Light Rain
Clouds:Overcast 023 Hf
Expected CloudBase > 800 ft AGL from Temp-Dew spread
Ceiling2,300 ft
Temp05°C (ISA -10)
Dew Point03°C (87% RH)
AAT-3.0°C
QNH1010 hPa
Density Alt-991 ft
Elevation10 ft
Report Wrong Elevation
Raw Report
CYPH 210000Z AUTO 17018G25KT 9SM -RA OVC023 05/03 A2983 RMK
SLP104=

Extra information for CYPH:More info

Metar Taf Metar & Taf Last 4 Metars F.Rules Stats Wind Profile Meteogram Temp Stats Airport Information Weather charts Add Link Nearby VenuesMetar ALERT Operation Metar Decoded Social comments